Springfield, IL (62712)

2:15 AM CST on December 12, 2017 (GMT -0600)
Oak Hill | | Change Station

Elev 581 ft 39.74 °N, 89.56 °W | Updated 26 seconds ago

Overcast
Overcast
34.2 °F
Feels Like 29 °F
N
6.0
Wind Variable Wind from WNW

Today
High -- | Low -- °F
--% Chance of Precip.
Yesterday
High -- | Low -- °F
Precip. -- in
Pressure 30.07 in
Visibility 10.0 miles
Clouds Overcast 3200 ft
Windchill 29 °F
Dew Point 26 °F
Humidity 71%
Rainfall 0.00 in
Snow Depth Not available.
7:10 AM 4:34 PM
Waning Crescent, 30% visible
METAR KSPI 120752Z AUTO 32012KT 10SM OVC032 02/M05 A3006 RMK AO2 PK WND 33029/0705 SLP181 T00171050
Pressure 30.07 in
Visibility 10.0 miles
Clouds Overcast 3200 ft
Windchill 29 °F
Dew Point 26 °F
Humidity 71%
Rainfall 0.00 in
Snow Depth Not available.
7:10 AM 4:34 PM
Waning Crescent, 30% visible
METAR KSPI 120752Z AUTO 32012KT 10SM OVC032 02/M05 A3006 RMK AO2 PK WND 33029/0705 SLP181 T00171050

Get Severe Weather Alerts

Thanks for signing up!

Be on the lookout for a verification email in your inbox.

You'll start receiving the daily forecast at 6 AM.

×

10-Day Weather Forecast

Almanac

Astronomy

Dec. 12, 2017 Rise Set
Actual Time
Civil Twilight
Nautical Twilight
Astronomical Twilight
Moon
Length of Visible Light
Length of Day
Tomorrow will be .
, % of the Moon is Illuminated

Today's Extremes

State Highs State Lows

Community

WunderPhotos

Category 6

Welcome to Category 6. This is the collective home for Weather Underground's featured writeups by Dr. Jeff Masters (right), Bob Henson (left), Chris Burt, and other regular contributors.

Nearby

Air Quality

  Air Quality AQ Index Pollutant
Not available.

Snow Depth

Station Depth Elevation

Earthquake Activity

City Distance Mag. Time & Date
Minimum magnitude displayed is 2.5.

Coastal Water Temperatures

Place Temperature

Stations

Nearby Weather Stations

Station Location Temp. Windchill Dew Point Humidity Wind Precip. Elev Updated Type
                   

Watches & Warnings

There are currently no watches in effect.